Time;durP1;ratioP1;P1;durP2;ratioP2;P2;SDS_P1;SDS_P2;PMS_P1;PMS_P2;Temp;Humidity;BMP_temperature;BMP_pressure;BME280_temperature;BME280_humidity;BME280_pressure;Samples;Min_cycle;Max_cycle;Signal;HPM_P1;HPM_P2
2022/07/21 00:00:29;;;;;;;0.30;0.30;;;19.70;99.90;;;;;;5038377;28;20187;-81
2022/07/21 00:02:56;;;;;;;0.30;0.30;;;19.70;99.90;;;;;;5040778;28;20192;-80
2022/07/21 00:05:22;;;;;;;0.20;0.20;;;19.70;99.90;;;;;;5040307;28;20283;-81
2022/07/21 00:07:48;;;;;;;0.20;0.20;;;19.70;99.90;;;;;;5039131;28;20203;-81
2022/07/21 00:10:14;;;;;;;0.20;0.20;;;19.70;99.90;;;;;;5038184;28;20226;-79
2022/07/21 00:12:40;;;;;;;0.30;0.30;;;19.70;99.90;;;;;;5039021;28;20212;-81
2022/07/21 00:15:06;;;;;;;0.30;0.30;;;19.70;99.90;;;;;;5040454;28;20208;-82
2022/07/21 00:17:33;;;;;;;0.30;0.30;;;19.70;99.90;;;;;;5043537;28;20168;-81
2022/07/21 00:19:59;;;;;;;0.30;0.30;;;19.70;99.90;;;;;;5043951;28;20183;-81
2022/07/21 00:22:24;;;;;;;0.30;0.30;;;19.60;99.90;;;;;;5044658;28;20684;-81
2022/07/21 00:24:50;;;;;;;0.20;0.20;;;19.60;99.90;;;;;;5044949;28;20238;-82
2022/07/21 00:27:16;;;;;;;0.30;0.30;;;19.60;99.90;;;;;;5045276;28;20191;-80
2022/07/21 00:29:41;;;;;;;0.20;0.20;;;19.60;99.90;;;;;;5045286;28;20506;-81
2022/07/21 00:32:07;;;;;;;0.27;0.27;;;19.60;99.90;;;;;;5044896;28;20279;-81
2022/07/21 00:34:32;;;;;;;0.50;0.50;;;19.70;99.90;;;;;;5044565;28;20176;-82
2022/07/21 00:36:58;;;;;;;0.30;0.30;;;19.60;99.90;;;;;;5043958;28;20206;-82
2022/07/21 00:39:24;;;;;;;0.30;0.30;;;19.70;99.90;;;;;;5044821;28;20187;-82
2022/07/21 00:41:49;;;;;;;0.40;0.40;;;19.70;99.90;;;;;;5044062;28;20592;-82
2022/07/21 00:44:26;;;;;;;0.27;0.27;;;19.70;99.90;;;;;;5044165;28;20727;-83
2022/07/21 00:46:53;;;;;;;0.30;0.30;;;19.80;99.90;;;;;;5045396;28;20179;-82
2022/07/21 00:49:19;;;;;;;0.30;0.30;;;19.70;99.90;;;;;;5044974;28;20183;-83
2022/07/21 00:51:46;;;;;;;0.30;0.30;;;19.80;99.90;;;;;;5045133;28;20248;-83
2022/07/21 00:54:12;;;;;;;0.30;0.30;;;19.80;99.90;;;;;;5045113;28;20593;-83
2022/07/21 00:56:38;;;;;;;0.30;0.30;;;19.90;99.90;;;;;;5044934;28;20221;-81
2022/07/21 00:59:03;;;;;;;0.30;0.30;;;19.90;99.90;;;;;;5044992;28;20215;-81
2022/07/21 01:01:29;;;;;;;0.40;0.40;;;19.90;99.90;;;;;;5043574;28;20233;-81
2022/07/21 01:03:54;;;;;;;0.30;0.30;;;19.90;99.90;;;;;;5045233;28;20200;-82
2022/07/21 01:06:23;;;;;;;0.30;0.30;;;19.80;99.90;;;;;;5048438;28;20175;-79
2022/07/21 01:08:48;;;;;;;0.40;0.40;;;19.90;99.90;;;;;;5046476;28;20658;-80
2022/07/21 01:11:14;;;;;;;0.47;0.47;;;19.80;99.90;;;;;;5046062;28;20195;-80
2022/07/21 01:13:41;;;;;;;0.30;0.30;;;19.80;99.90;;;;;;5046049;28;20215;-81
2022/07/21 01:16:08;;;;;;;0.30;0.30;;;19.80;99.90;;;;;;5046407;28;20245;-82
2022/07/21 01:18:34;;;;;;;0.20;0.20;;;19.80;99.90;;;;;;5045374;28;20182;-81
2022/07/21 01:21:05;;;;;;;0.30;0.30;;;19.80;99.90;;;;;;5045405;28;20176;-83
2022/07/21 01:23:31;;;;;;;0.30;0.30;;;19.70;99.90;;;;;;5045332;28;20206;-83
2022/07/21 01:25:57;;;;;;;0.40;0.40;;;19.80;99.90;;;;;;5045902;28;20180;-82
2022/07/21 01:28:22;;;;;;;0.30;0.30;;;19.80;99.90;;;;;;5044123;28;20199;-82
2022/07/21 01:30:48;;;;;;;0.37;0.37;;;19.90;99.90;;;;;;5045170;28;20186;-82
2022/07/21 01:33:13;;;;;;;0.30;0.30;;;19.90;99.90;;;;;;5046169;28;20641;-81
2022/07/21 01:35:39;;;;;;;0.40;0.40;;;19.80;99.90;;;;;;5047809;28;20414;-80
2022/07/21 01:41:28;;;;;;;0.40;0.40;;;19.80;99.90;;;;;;5046618;28;20172;-80
2022/07/21 01:43:40;;;;;;;0.30;0.30;;;19.90;99.90;;;;;;5039548;28;20655;-82
2022/07/21 01:46:10;;;;;;;0.30;0.30;;;19.90;99.90;;;;;;5036897;28;20187;-80
2022/07/21 01:48:43;;;;;;;0.27;0.27;;;19.90;99.90;;;;;;5036661;28;20179;-79
2022/07/21 01:51:09;;;;;;;0.40;0.40;;;19.90;99.90;;;;;;5035841;28;20181;-81
2022/07/21 01:53:34;;;;;;;0.23;0.23;;;19.90;99.90;;;;;;5037124;28;20203;-80
2022/07/21 01:56:00;;;;;;;0.30;0.30;;;19.80;99.90;;;;;;5035867;28;20207;-80
2022/07/21 01:58:26;;;;;;;0.30;0.30;;;19.90;99.90;;;;;;5035860;28;20172;-80
2022/07/21 02:00:51;;;;;;;0.30;0.30;;;19.90;99.90;;;;;;5036003;28;20180;-79
2022/07/21 02:03:17;;;;;;;0.20;0.20;;;19.90;99.90;;;;;;5036237;28;20286;-79
2022/07/21 02:05:42;;;;;;;0.30;0.30;;;19.80;99.90;;;;;;5037435;28;20217;-80
2022/07/21 02:08:08;;;;;;;0.40;0.40;;;19.80;99.90;;;;;;5036572;28;20171;-81
2022/07/21 02:10:35;;;;;;;0.20;0.20;;;19.80;99.90;;;;;;5036155;28;20172;-79
2022/07/21 02:13:02;;;;;;;0.30;0.30;;;19.80;99.90;;;;;;5035965;28;20195;-81
2022/07/21 02:15:28;;;;;;;0.30;0.30;;;19.70;99.90;;;;;;5036233;28;20215;-79
2022/07/21 02:17:53;;;;;;;0.33;0.33;;;19.70;99.90;;;;;;5035754;28;20526;-80
2022/07/21 02:20:19;;;;;;;0.20;0.20;;;19.60;99.90;;;;;;5035270;28;20687;-80
2022/07/21 02:22:45;;;;;;;0.40;0.40;;;19.70;99.90;;;;;;5036536;28;20606;-79
2022/07/21 02:25:11;;;;;;;0.30;0.30;;;19.60;99.90;;;;;;5036120;28;20619;-78
2022/07/21 02:27:36;;;;;;;0.33;0.33;;;19.60;99.90;;;;;;5036134;28;20172;-79
2022/07/21 02:30:03;;;;;;;0.30;0.30;;;19.60;99.90;;;;;;5036102;28;20185;-80
2022/07/21 02:32:28;;;;;;;0.30;0.30;;;19.50;99.90;;;;;;5036445;28;20681;-80
2022/07/21 02:34:54;;;;;;;0.30;0.30;;;19.50;99.90;;;;;;5036440;28;20273;-80
2022/07/21 02:37:19;;;;;;;0.30;0.30;;;19.50;99.90;;;;;;5036268;28;20172;-79
2022/07/21 02:39:45;;;;;;;0.40;0.40;;;19.50;99.90;;;;;;5035405;28;20542;-79
2022/07/21 02:42:10;;;;;;;0.30;0.30;;;19.40;99.90;;;;;;5035964;28;20567;-80
2022/07/21 02:44:36;;;;;;;0.30;0.30;;;19.50;99.90;;;;;;5040204;28;20190;-79
2022/07/21 02:47:02;;;;;;;0.30;0.30;;;19.50;99.90;;;;;;5044974;28;20179;-79
2022/07/21 02:49:28;;;;;;;0.30;0.30;;;19.50;99.90;;;;;;5048002;28;20175;-79
2022/07/21 02:51:53;;;;;;;0.30;0.30;;;19.40;99.90;;;;;;5048504;28;20171;-79
2022/07/21 02:54:18;;;;;;;0.30;0.30;;;19.40;99.90;;;;;;5048178;28;20176;-79
2022/07/21 02:56:44;;;;;;;0.30;0.30;;;19.50;99.90;;;;;;5048360;28;20254;-80
2022/07/21 02:59:10;;;;;;;0.20;0.20;;;19.40;99.90;;;;;;5047364;28;20187;-79
2022/07/21 03:01:35;;;;;;;0.30;0.30;;;19.50;99.90;;;;;;5050238;28;20172;-80
2022/07/21 03:04:01;;;;;;;0.30;0.30;;;19.50;99.90;;;;;;5051547;28;20256;-80
2022/07/21 03:06:26;;;;;;;0.30;0.30;;;19.40;99.90;;;;;;5051947;28;20168;-79
2022/07/21 03:08:52;;;;;;;0.40;0.40;;;19.40;99.90;;;;;;5055640;28;20179;-80
2022/07/21 03:11:17;;;;;;;0.30;0.30;;;19.40;99.90;;;;;;5042894;28;20198;-80
2022/07/21 03:13:43;;;;;;;0.30;0.30;;;19.40;99.90;;;;;;5042132;28;20207;-79
2022/07/21 03:16:08;;;;;;;0.30;0.30;;;19.30;99.90;;;;;;5042063;28;20231;-80
2022/07/21 03:18:35;;;;;;;0.20;0.20;;;19.30;99.90;;;;;;5041268;28;20776;-79
2022/07/21 03:21:00;;;;;;;0.30;0.30;;;19.20;99.90;;;;;;5040895;28;20215;-81
2022/07/21 03:23:26;;;;;;;0.30;0.30;;;19.20;99.90;;;;;;5039409;28;20240;-80
2022/07/21 03:25:51;;;;;;;0.30;0.30;;;19.20;99.90;;;;;;5040470;28;20209;-80
2022/07/21 03:28:17;;;;;;;0.27;0.27;;;19.20;99.90;;;;;;5040408;28;20172;-80
2022/07/21 03:30:42;;;;;;;0.30;0.30;;;19.20;99.90;;;;;;5040173;28;20277;-80
2022/07/21 03:33:08;;;;;;;0.30;0.30;;;19.20;99.90;;;;;;5040892;28;20276;-80
2022/07/21 03:35:35;;;;;;;0.30;0.30;;;19.20;99.90;;;;;;5042477;28;20293;-80
2022/07/21 03:38:01;;;;;;;0.20;0.20;;;19.20;99.90;;;;;;5041491;28;20279;-79
2022/07/21 03:40:30;;;;;;;0.33;0.33;;;19.20;99.90;;;;;;5041809;28;20176;-79
2022/07/21 03:42:58;;;;;;;0.20;0.20;;;19.20;99.90;;;;;;5041686;28;20229;-80
2022/07/21 03:45:25;;;;;;;0.40;0.40;;;19.20;99.90;;;;;;5042323;28;20190;-79
2022/07/21 03:47:51;;;;;;;0.30;0.30;;;19.30;99.90;;;;;;5041220;28;20187;-79
2022/07/21 03:50:17;;;;;;;0.33;0.33;;;19.30;99.90;;;;;;5041804;28;20209;-80
2022/07/21 03:52:44;;;;;;;0.30;0.30;;;19.30;99.90;;;;;;5044826;28;20235;-80
2022/07/21 03:55:14;;;;;;;0.30;0.30;;;19.30;99.90;;;;;;5044190;28;20235;-80
2022/07/21 03:57:52;;;;;;;0.30;0.30;;;19.20;99.90;;;;;;5044560;28;20176;-80
2022/07/21 04:00:26;;;;;;;0.50;0.50;;;19.20;99.90;;;;;;5043594;28;20195;-80
2022/07/21 04:02:52;;;;;;;0.30;0.30;;;19.20;99.90;;;;;;5043716;28;20671;-81
2022/07/21 04:05:18;;;;;;;0.37;0.37;;;19.20;99.90;;;;;;5044027;28;20175;-80
2022/07/21 04:07:46;;;;;;;0.40;0.40;;;19.20;99.90;;;;;;5044655;28;20171;-79
2022/07/21 04:10:13;;;;;;;0.30;0.30;;;19.20;99.90;;;;;;5043591;28;20171;-79
2022/07/21 04:12:40;;;;;;;0.37;0.37;;;19.30;99.90;;;;;;5042335;28;20207;-79
2022/07/21 04:15:07;;;;;;;0.30;0.30;;;19.20;99.90;;;;;;5043553;28;20199;-79
2022/07/21 04:17:33;;;;;;;0.30;0.30;;;19.30;99.90;;;;;;5042450;28;20641;-79
2022/07/21 04:19:58;;;;;;;0.30;0.30;;;19.30;99.90;;;;;;5042181;28;20184;-79
2022/07/21 04:22:24;;;;;;;0.30;0.30;;;19.40;99.90;;;;;;5042642;28;20680;-79
2022/07/21 04:24:50;;;;;;;0.40;0.40;;;19.40;99.90;;;;;;5042845;28;20222;-79
2022/07/21 04:27:15;;;;;;;0.33;0.33;;;19.40;99.90;;;;;;5042369;28;20633;-80
2022/07/21 04:29:41;;;;;;;0.30;0.30;;;19.40;99.90;;;;;;5040967;28;20262;-80
2022/07/21 04:32:06;;;;;;;0.40;0.40;;;19.60;99.90;;;;;;5040052;28;20241;-79
2022/07/21 04:34:32;;;;;;;0.30;0.30;;;19.50;99.90;;;;;;5041490;28;20675;-81
2022/07/21 04:36:58;;;;;;;0.23;0.23;;;19.60;99.90;;;;;;5044223;28;20542;-80
2022/07/21 04:39:23;;;;;;;0.30;0.30;;;19.50;99.90;;;;;;5043381;28;20168;-80
2022/07/21 04:41:49;;;;;;;0.30;0.30;;;19.60;99.90;;;;;;5042204;28;20180;-80
2022/07/21 04:44:14;;;;;;;0.30;0.30;;;19.60;99.90;;;;;;5043088;28;20187;-80
2022/07/21 04:46:40;;;;;;;0.40;0.40;;;19.60;99.90;;;;;;5037973;28;20180;-81
2022/07/21 04:49:05;;;;;;;0.30;0.30;;;19.70;99.90;;;;;;5038679;28;20259;-81
2022/07/21 04:51:31;;;;;;;0.30;0.30;;;19.70;99.90;;;;;;5040533;28;20206;-84
2022/07/21 04:53:57;;;;;;;0.20;0.20;;;19.80;99.90;;;;;;5038738;28;20564;-84
2022/07/21 04:56:22;;;;;;;0.20;0.20;;;19.90;99.90;;;;;;5038199;28;20290;-82
2022/07/21 04:58:48;;;;;;;0.27;0.27;;;20.20;99.90;;;;;;5037611;28;20546;-83
2022/07/21 05:01:13;;;;;;;0.40;0.40;;;20.30;99.90;;;;;;5038072;28;20176;-82
2022/07/21 05:03:39;;;;;;;0.50;0.50;;;20.30;99.90;;;;;;5038030;28;20552;-83
2022/07/21 05:06:05;;;;;;;0.30;0.30;;;20.30;99.90;;;;;;5038127;28;20261;-82
2022/07/21 05:08:30;;;;;;;0.20;0.20;;;20.40;99.90;;;;;;5038776;28;20180;-84
2022/07/21 05:10:56;;;;;;;0.30;0.30;;;20.70;99.90;;;;;;5037583;28;20184;-83
2022/07/21 05:13:21;;;;;;;0.20;0.20;;;21.00;99.90;;;;;;5036933;28;20214;-83
2022/07/21 05:15:47;;;;;;;0.20;0.20;;;21.10;99.90;;;;;;5037336;28;20208;-83
2022/07/21 05:18:12;;;;;;;0.30;0.30;;;21.10;99.90;;;;;;5036923;28;20545;-84
2022/07/21 05:20:38;;;;;;;0.27;0.27;;;20.90;99.90;;;;;;5036212;28;20195;-81
2022/07/21 05:23:04;;;;;;;0.20;0.20;;;20.90;99.90;;;;;;5037339;28;20199;-83
2022/07/21 05:25:31;;;;;;;0.30;0.30;;;20.80;99.90;;;;;;5038857;28;20188;-83
2022/07/21 05:27:57;;;;;;;0.20;0.20;;;20.80;99.90;;;;;;5037249;28;20187;-81
2022/07/21 05:30:23;;;;;;;0.30;0.30;;;20.60;99.90;;;;;;5037718;28;20176;-82
2022/07/21 05:32:49;;;;;;;0.30;0.30;;;20.50;99.90;;;;;;5037054;28;20287;-82
2022/07/21 05:35:15;;;;;;;0.27;0.27;;;20.50;99.90;;;;;;5037938;28;20212;-81
2022/07/21 05:37:41;;;;;;;0.30;0.30;;;20.30;99.90;;;;;;5038184;28;20585;-82
2022/07/21 05:40:08;;;;;;;0.20;0.20;;;20.20;99.90;;;;;;5036387;28;20207;-81
2022/07/21 05:42:35;;;;;;;0.20;0.20;;;20.10;99.90;;;;;;5035892;28;20547;-81
2022/07/21 05:45:01;;;;;;;0.30;0.30;;;20.10;99.90;;;;;;5036783;28;20171;-81
2022/07/21 05:47:27;;;;;;;0.20;0.20;;;20.10;99.90;;;;;;5035359;28;20210;-81
2022/07/21 05:49:52;;;;;;;0.40;0.40;;;20.10;99.90;;;;;;5037560;28;20172;-83
2022/07/21 05:52:18;;;;;;;0.30;0.30;;;20.20;99.90;;;;;;5044956;28;20196;-80
2022/07/21 05:54:43;;;;;;;0.30;0.30;;;20.40;99.90;;;;;;5046360;28;20229;-83
2022/07/21 05:57:09;;;;;;;0.20;0.20;;;20.40;99.90;;;;;;5044200;28;20202;-83
2022/07/21 05:59:34;;;;;;;0.30;0.30;;;20.50;99.90;;;;;;5038440;28;20175;-83
2022/07/21 06:02:00;;;;;;;0.30;0.30;;;20.60;99.90;;;;;;5047600;28;20196;-80
2022/07/21 06:04:25;;;;;;;0.30;0.30;;;20.60;99.90;;;;;;5040922;28;20234;-82
2022/07/21 06:06:52;;;;;;;0.30;0.30;;;20.80;99.90;;;;;;5039366;28;20172;-81
2022/07/21 06:09:18;;;;;;;0.27;0.27;;;20.90;99.90;;;;;;5037888;28;20652;-80
2022/07/21 06:11:44;;;;;;;0.20;0.20;;;21.00;99.90;;;;;;5049848;28;20184;-82
2022/07/21 06:14:09;;;;;;;0.30;0.30;;;21.00;99.90;;;;;;5050733;28;20180;-82
2022/07/21 06:16:35;;;;;;;0.30;0.30;;;21.00;99.90;;;;;;5041004;28;20211;-82
2022/07/21 06:19:01;;;;;;;0.27;0.27;;;21.10;99.90;;;;;;5034377;28;20187;-80
2022/07/21 06:21:27;;;;;;;0.30;0.30;;;21.10;99.90;;;;;;5036528;28;20195;-81
2022/07/21 06:23:53;;;;;;;0.20;0.20;;;21.10;99.90;;;;;;5037197;28;20202;-82
2022/07/21 06:26:19;;;;;;;0.40;0.40;;;21.30;99.90;;;;;;5036840;28;20172;-82
2022/07/21 06:28:45;;;;;;;0.30;0.30;;;21.60;99.90;;;;;;5036548;28;20190;-82
2022/07/21 06:31:10;;;;;;;0.30;0.30;;;21.60;99.90;;;;;;5036406;28;20180;-83
2022/07/21 06:33:36;;;;;;;0.30;0.30;;;22.00;99.90;;;;;;5036431;28;20211;-82
2022/07/21 06:36:01;;;;;;;0.30;0.30;;;22.10;99.90;;;;;;5036766;28;20215;-81
2022/07/21 06:38:27;;;;;;;0.20;0.20;;;22.10;99.90;;;;;;5036753;28;20172;-82
2022/07/21 06:40:53;;;;;;;0.30;0.30;;;22.30;99.90;;;;;;5036824;28;20680;-81
2022/07/21 06:43:19;;;;;;;0.27;0.27;;;22.40;90.20;;;;;;5037453;28;20202;-81
2022/07/21 06:45:44;;;;;;;0.40;0.40;;;22.40;54.60;;;;;;5039295;28;20184;-82
2022/07/21 06:48:12;;;;;;;0.20;0.20;;;22.50;38.20;;;;;;5036653;28;20533;-82
2022/07/21 06:50:37;;;;;;;0.30;0.30;;;22.40;1.00;;;;;;5037239;28;20546;-81
2022/07/21 06:53:04;;;;;;;0.20;0.20;;;22.40;45.40;;;;;;5036304;28;20223;-81
2022/07/21 06:55:30;;;;;;;0.30;0.30;;;22.70;12.50;;;;;;5035879;28;20234;-82
2022/07/21 06:57:55;;;;;;;0.30;0.30;;;23.00;10.70;;;;;;5036088;28;20629;-82
2022/07/21 07:00:21;;;;;;;0.20;0.20;;;23.10;1.00;;;;;;5035443;28;20674;-82
2022/07/21 07:02:47;;;;;;;0.30;0.30;;;23.20;1.00;;;;;;5036036;28;20222;-81
2022/07/21 07:05:13;;;;;;;0.37;0.37;;;23.20;1.00;;;;;;5035894;28;20263;-82
2022/07/21 07:07:38;;;;;;;0.30;0.30;;;23.10;1.00;;;;;;5035820;28;20184;-82
2022/07/21 07:10:04;;;;;;;0.27;0.27;;;23.10;1.00;;;;;;5034615;28;20191;-82
2022/07/21 07:12:30;;;;;;;0.30;0.30;;;22.90;1.00;;;;;;5035059;28;20210;-82
2022/07/21 07:14:55;;;;;;;0.30;0.30;;;22.90;1.00;;;;;;5036745;28;20587;-82
2022/07/21 07:17:21;;;;;;;0.30;0.30;;;22.90;1.00;;;;;;5035362;28;20175;-82
2022/07/21 07:19:47;;;;;;;0.30;0.30;;;22.90;1.00;;;;;;5035144;28;20180;-82
2022/07/21 07:22:14;;;;;;;0.20;0.20;;;22.80;1.00;;;;;;5035631;28;20196;-83
2022/07/21 07:24:39;;;;;;;0.30;0.30;;;22.70;1.00;;;;;;5034590;28;20172;-82
2022/07/21 07:27:05;;;;;;;0.30;0.30;;;22.90;1.00;;;;;;5034984;28;20198;-82
2022/07/21 07:29:31;;;;;;;0.30;0.30;;;22.90;1.00;;;;;;5034758;28;20187;-81
2022/07/21 07:31:57;;;;;;;0.30;0.30;;;23.00;99.90;;;;;;5035405;28;20676;-83
2022/07/21 07:34:22;;;;;;;0.40;0.40;;;22.90;1.00;;;;;;5035657;28;20625;-81
2022/07/21 07:36:48;;;;;;;0.20;0.20;;;23.10;99.90;;;;;;5035323;28;20207;-81
2022/07/21 07:39:15;;;;;;;0.20;0.20;;;23.60;63.80;;;;;;5034546;28;20698;-82
2022/07/21 07:41:42;;;;;;;0.30;0.30;;;24.00;1.00;;;;;;5035186;28;20255;-83
2022/07/21 07:44:08;;;;;;;0.30;0.30;;;24.40;1.00;;;;;;5035769;28;20183;-82
2022/07/21 07:46:33;;;;;;;0.30;0.30;;;24.70;99.90;;;;;;5036138;28;20175;-82
2022/07/21 07:48:59;;;;;;;0.20;0.20;;;24.70;1.00;;;;;;5034866;28;20178;-84
2022/07/21 07:51:25;;;;;;;0.20;0.20;;;24.80;1.00;;;;;;5035406;28;20179;-81
2022/07/21 07:53:51;;;;;;;0.37;0.37;;;24.80;99.90;;;;;;5034791;28;20242;-81
2022/07/21 07:56:16;;;;;;;0.30;0.30;;;24.80;1.00;;;;;;5034383;28;20227;-81
2022/07/21 07:58:42;;;;;;;0.40;0.40;;;24.80;14.00;;;;;;5034830;28;20211;-81
2022/07/21 08:01:09;;;;;;;0.30;0.30;;;25.00;1.00;;;;;;5034117;28;20168;-82
2022/07/21 08:03:34;;;;;;;0.33;0.33;;;25.00;1.00;;;;;;5034281;28;20250;-82
2022/07/21 08:06:03;;;;;;;0.20;0.20;;;25.20;99.90;;;;;;5034969;28;20524;-81
2022/07/21 08:08:29;;;;;;;0.30;0.30;;;25.30;99.90;;;;;;5035296;28;20191;-81
2022/07/21 08:10:55;;;;;;;0.30;0.30;;;25.60;1.00;;;;;;5034580;28;20195;-82
2022/07/21 08:13:20;;;;;;;0.30;0.30;;;25.90;1.00;;;;;;5034829;28;20215;-82
2022/07/21 08:15:47;;;;;;;0.37;0.37;;;26.10;99.90;;;;;;5034830;28;20408;-81
2022/07/21 08:18:13;;;;;;;0.30;0.30;;;25.70;99.90;;;;;;5034923;28;20279;-81
2022/07/21 08:20:38;;;;;;;0.37;0.37;;;25.50;99.90;;;;;;5034659;28;20230;-81
2022/07/21 08:23:05;;;;;;;0.50;0.50;;;25.40;1.00;;;;;;5034871;28;20195;-81
2022/07/21 08:25:30;;;;;;;0.30;0.30;;;25.70;99.90;;;;;;5034732;28;20168;-82
2022/07/21 08:27:56;;;;;;;0.40;0.40;;;25.60;99.90;;;;;;5036282;28;20186;-82
2022/07/21 08:30:22;;;;;;;0.40;0.40;;;25.50;1.00;;;;;;5035677;28;20527;-82
2022/07/21 08:32:47;;;;;;;0.43;0.43;;;25.80;99.90;;;;;;5035125;28;20228;-82
2022/07/21 08:35:13;;;;;;;0.30;0.30;;;26.30;64.10;;;;;;5035381;28;20226;-83
2022/07/21 08:37:39;;;;;;;0.40;0.40;;;26.90;1.00;;;;;;5038510;28;20692;-81
2022/07/21 08:40:08;;;;;;;0.40;0.40;;;27.10;1.00;;;;;;5039560;28;20175;-80
2022/07/21 08:42:34;;;;;;;0.40;0.40;;;27.40;1.00;;;;;;5042194;28;20192;-81
2022/07/21 08:45:00;;;;;;;0.40;0.40;;;27.30;1.00;;;;;;5042137;28;20187;-82
2022/07/21 08:47:27;;;;;;;0.40;0.40;;;26.90;1.00;;;;;;5044015;28;20187;-80
2022/07/21 08:49:54;;;;;;;0.30;0.30;;;26.40;1.00;;;;;;5042131;28;20539;-82
2022/07/21 08:52:20;;;;;;;0.33;0.33;;;26.30;1.00;;;;;;5036684;28;20714;-80
2022/07/21 08:54:45;;;;;;;0.37;0.37;;;26.40;1.00;;;;;;5037609;28;20196;-82
2022/07/21 08:57:11;;;;;;;0.50;0.50;;;26.70;1.00;;;;;;5038699;28;20187;-82
2022/07/21 08:59:37;;;;;;;0.40;0.40;;;27.20;1.00;;;;;;5038147;28;20230;-80
2022/07/21 09:02:03;;;;;;;0.40;0.40;;;27.10;1.00;;;;;;5037417;28;20200;-81
2022/07/21 09:04:34;;;;;;;0.40;0.40;;;26.50;1.00;;;;;;5036905;28;20266;-80
2022/07/21 09:07:05;;;;;;;0.30;0.30;;;26.20;1.00;;;;;;5033687;28;20199;-79
2022/07/21 09:09:32;;;;;;;0.30;0.30;;;26.00;1.00;;;;;;5036412;28;20175;-79
2022/07/21 09:11:58;;;;;;;0.30;0.30;;;25.50;1.00;;;;;;5036169;28;20207;-79
2022/07/21 09:14:29;;;;;;;0.50;0.50;;;25.90;1.00;;;;;;5035978;28;20294;-82
2022/07/21 09:17:01;;;;;;;0.30;0.30;;;26.50;1.00;;;;;;5036285;28;20222;-79
2022/07/21 09:19:32;;;;;;;0.37;0.37;;;27.40;1.00;;;;;;5035760;28;20629;-81
2022/07/21 09:21:59;;;;;;;0.30;0.30;;;27.80;1.00;;;;;;5037176;28;20198;-80
2022/07/21 09:24:34;;;;;;;0.40;0.40;;;27.90;1.00;;;;;;5036628;28;20180;-80
2022/07/21 09:27:22;;;;;;;0.40;0.40;;;28.00;1.00;;;;;;5038221;28;20555;-79
2022/07/21 09:29:51;;;;;;;0.47;0.47;;;28.00;1.00;;;;;;5034375;28;20207;-79
2022/07/21 09:32:28;;;;;;;0.30;0.30;;;27.70;1.00;;;;;;5036420;28;20214;-77
2022/07/21 09:35:09;;;;;;;0.40;0.40;;;27.90;1.00;;;;;;5035517;28;20629;-78
2022/07/21 09:37:36;;;;;;;0.40;0.40;;;28.10;1.00;;;;;;5034884;28;20697;-78
2022/07/21 09:40:14;;;;;;;0.30;0.30;;;28.10;1.00;;;;;;5035199;28;20259;-79
2022/07/21 09:42:49;;;;;;;0.40;0.40;;;27.90;1.00;;;;;;5035623;28;20722;-79
2022/07/21 09:45:17;;;;;;;0.40;0.40;;;28.00;1.00;;;;;;5036534;28;20186;-81
2022/07/21 09:47:43;;;;;;;0.50;0.50;;;28.40;1.00;;;;;;5034911;28;20194;-80
2022/07/21 09:50:13;;;;;;;0.30;0.30;;;28.70;1.00;;;;;;5035166;28;20180;-79
2022/07/21 09:52:43;;;;;;;0.47;0.47;;;29.00;1.00;;;;;;5035555;28;20195;-81
2022/07/21 09:55:12;;;;;;;0.40;0.40;;;29.00;1.00;;;;;;5035809;28;20200;-80
2022/07/21 09:57:37;;;;;;;0.50;0.50;;;29.60;1.00;;;;;;5035473;28;20256;-80
2022/07/21 10:00:06;;;;;;;0.43;0.43;;;29.60;1.00;;;;;;5035329;28;20214;-80
2022/07/21 10:02:33;;;;;;;0.50;0.50;;;29.50;1.00;;;;;;5036855;28;20284;-80
2022/07/21 10:05:06;;;;;;;0.43;0.43;;;29.80;1.00;;;;;;5036825;28;20183;-80
2022/07/21 10:07:35;;;;;;;0.40;0.40;;;29.70;1.00;;;;;;5036692;28;20168;-81
2022/07/21 10:10:00;;;;;;;0.30;0.30;;;29.40;1.00;;;;;;5036384;28;20278;-82
2022/07/21 10:12:27;;;;;;;0.50;0.50;;;29.50;1.00;;;;;;5036745;28;20243;-81
2022/07/21 10:14:54;;;;;;;0.47;0.47;;;29.70;1.00;;;;;;5036299;28;20183;-80
2022/07/21 10:17:22;;;;;;;0.33;0.33;;;29.90;1.00;;;;;;5036745;28;20188;-81
2022/07/21 10:20:12;;;;;;;0.40;0.40;;;30.20;1.00;;;;;;5037727;28;20179;-79
2022/07/21 10:23:02;;;;;;;0.40;0.40;;;30.30;1.00;;;;;;5041898;28;20196;-79
2022/07/21 10:25:29;;;;;;;0.50;0.50;;;30.70;1.00;;;;;;5037828;28;20200;-82
2022/07/21 10:28:14;;;;;;;0.40;0.40;;;30.10;1.00;;;;;;5035549;28;20176;-79
2022/07/21 10:30:45;;;;;;;0.50;0.50;;;29.10;1.00;;;;;;5034477;28;20702;-79
2022/07/21 10:33:12;;;;;;;0.53;0.53;;;28.30;1.00;;;;;;5035164;28;20231;-80
2022/07/21 10:35:46;;;;;;;0.50;0.50;;;28.60;1.00;;;;;;5035051;28;20208;-80
2022/07/21 10:38:41;;;;;;;0.50;0.50;;;29.10;1.00;;;;;;5035306;28;20591;-80
2022/07/21 10:41:06;;;;;;;0.40;0.40;;;29.20;1.00;;;;;;5017127;28;20195;-83
2022/07/21 10:43:36;;;;;;;0.60;0.60;;;29.70;1.00;;;;;;5034847;28;20188;-80
2022/07/21 10:46:02;;;;;;;0.47;0.47;;;29.80;1.00;;;;;;5034064;28;20254;-80
2022/07/21 10:48:43;;;;;;;0.50;0.50;;;30.00;1.00;;;;;;5035286;28;20168;-80
2022/07/21 10:51:14;;;;;;;0.50;0.50;;;30.00;1.00;;;;;;5032308;28;20176;-80
2022/07/21 10:53:40;;;;;;;0.40;0.40;;;29.60;1.00;;;;;;5039904;28;20188;-81
2022/07/21 10:56:07;;;;;;;0.53;0.53;;;28.90;1.00;;;;;;5045370;28;20215;-80
2022/07/21 10:58:42;;;;;;;0.50;0.50;;;28.30;1.00;;;;;;5048444;28;20636;-79
2022/07/21 11:01:14;;;;;;;0.40;0.40;;;28.00;1.00;;;;;;5045488;28;20239;-79
2022/07/21 11:03:41;;;;;;;0.30;0.30;;;28.10;1.00;;;;;;5019724;28;20199;-78
2022/07/21 11:06:21;;;;;;;0.37;0.37;;;27.80;1.00;;;;;;5013475;28;20181;-79
2022/07/21 11:08:52;;;;;;;0.40;0.40;;;27.80;1.00;;;;;;5014812;28;20187;-79
2022/07/21 11:11:24;;;;;;;0.30;0.30;;;28.20;1.00;;;;;;5014425;28;20214;-82
2022/07/21 11:14:09;;;;;;;0.70;0.70;;;28.70;1.00;;;;;;5014023;28;20219;-78
2022/07/21 11:16:52;;;;;;;0.50;0.50;;;29.20;1.00;;;;;;5013660;28;20678;-78
2022/07/21 11:19:45;;;;;;;0.40;0.40;;;29.60;1.00;;;;;;5030940;28;20180;-79
2022/07/21 11:22:17;;;;;;;0.37;0.37;;;29.90;1.00;;;;;;5035049;28;20200;-78
2022/07/21 11:24:54;;;;;;;0.40;0.40;;;29.60;1.00;;;;;;5032613;28;20187;-78
2022/07/21 11:27:24;;;;;;;0.47;0.47;;;29.50;1.00;;;;;;5034176;28;20225;-79
2022/07/21 11:29:52;;;;;;;0.43;0.43;;;29.60;1.00;;;;;;5032009;28;20206;-79
2022/07/21 11:32:18;;;;;;;0.50;0.50;;;30.00;1.00;;;;;;5033210;28;20207;-80
2022/07/21 11:34:51;;;;;;;0.30;0.30;;;30.00;1.00;;;;;;5033242;28;20518;-78
2022/07/21 11:37:37;;;;;;;0.50;0.50;;;29.90;1.00;;;;;;5032972;28;20187;-81
2022/07/21 11:40:08;;;;;;;0.60;0.60;;;30.60;1.00;;;;;;5032129;28;20199;-79
2022/07/21 11:42:34;;;;;;;0.50;0.50;;;30.60;1.00;;;;;;5032903;28;20570;-78
2022/07/21 11:44:59;;;;;;;0.40;0.40;;;30.20;1.00;;;;;;5033153;28;20318;-78
2022/07/21 11:47:25;;;;;;;0.50;0.50;;;29.90;1.00;;;;;;5032623;28;20649;-78
2022/07/21 11:49:53;;;;;;;0.50;0.50;;;30.10;1.00;;;;;;5032076;28;20180;-78
2022/07/21 11:52:20;;;;;;;0.60;0.60;;;30.10;1.00;;;;;;5032993;28;20254;-78
2022/07/21 11:54:48;;;;;;;0.40;0.40;;;29.60;1.00;;;;;;5032654;28;20634;-79
2022/07/21 11:57:16;;;;;;;0.53;0.53;;;29.40;1.00;;;;;;5033499;28;20677;-78
2022/07/21 11:59:43;;;;;;;0.37;0.37;;;29.30;1.00;;;;;;5032233;28;20626;-79
2022/07/21 12:02:14;;;;;;;0.43;0.43;;;29.70;1.00;;;;;;5034386;28;20258;-81
2022/07/21 12:04:46;;;;;;;0.40;0.40;;;30.30;1.00;;;;;;5035881;28;20254;-79
2022/07/21 12:07:34;;;;;;;0.50;0.50;;;30.70;1.00;;;;;;5034315;28;20176;-81
2022/07/21 12:10:06;;;;;;;0.50;0.50;;;30.50;1.00;;;;;;5033486;28;20192;-78
2022/07/21 12:12:40;;;;;;;0.60;0.60;;;30.60;1.00;;;;;;5035827;28;20207;-79
2022/07/21 12:15:19;;;;;;;0.50;0.50;;;30.30;1.00;;;;;;5037806;28;20195;-78
2022/07/21 12:17:45;;;;;;;0.53;0.53;;;29.80;1.00;;;;;;5036999;28;20251;-79
2022/07/21 12:20:11;;;;;;;0.40;0.40;;;29.60;1.00;;;;;;5037062;28;20218;-77
2022/07/21 12:22:44;;;;;;;0.40;0.40;;;29.40;1.00;;;;;;5037299;28;20203;-78
2022/07/21 12:25:11;;;;;;;0.60;0.60;;;29.40;1.00;;;;;;5036780;28;20577;-77
2022/07/21 12:27:40;;;;;;;0.50;0.50;;;29.50;1.00;;;;;;5037234;28;20187;-78
2022/07/21 12:30:08;;;;;;;0.50;0.50;;;29.90;1.00;;;;;;5036129;28;20179;-78
2022/07/21 12:32:48;;;;;;;0.53;0.53;;;29.90;1.00;;;;;;5036774;28;20572;-79
2022/07/21 12:35:27;;;;;;;0.30;0.30;;;29.80;1.00;;;;;;5036385;28;20722;-77
2022/07/21 12:38:13;;;;;;;0.40;0.40;;;29.50;1.00;;;;;;5035963;28;20180;-77
2022/07/21 12:40:56;;;;;;;0.50;0.50;;;29.40;1.00;;;;;;5050310;23;20231;-82
2022/07/21 12:43:25;;;;;;;0.40;0.40;;;29.20;1.00;;;;;;5037904;28;20223;-83
2022/07/21 12:45:59;;;;;;;0.50;0.50;;;29.10;1.00;;;;;;5038405;28;20184;-82
2022/07/21 12:48:27;;;;;;;0.43;0.43;;;29.30;1.00;;;;;;5038337;28;20187;-82
2022/07/21 12:51:09;;;;;;;0.43;0.43;;;29.30;1.00;;;;;;5038136;28;20728;-83
2022/07/21 12:53:47;;;;;;;0.60;0.60;;;29.20;1.00;;;;;;5037499;28;20733;-81
2022/07/21 12:56:15;;;;;;;0.37;0.37;;;28.90;1.00;;;;;;5037354;28;20673;-79